createdAt,value
2023-04-11T00:01:32.393Z,64.69
2023-04-11T00:06:35.349Z,66.60
2023-04-11T00:11:38.095Z,65.54
2023-04-11T00:16:42.601Z,67.95
2023-04-11T00:21:45.401Z,65.71
2023-04-11T00:26:48.148Z,64.25
2023-04-11T00:31:52.805Z,64.01
2023-04-11T00:36:56.280Z,64.72
2023-04-11T00:42:07.797Z,66.94
2023-04-11T00:47:12.415Z,64.93
2023-04-11T00:52:15.217Z,64.75
2023-04-11T00:57:18.593Z,64.83
2023-04-11T01:02:24.929Z,65.06
2023-04-11T01:07:32.079Z,65.50
2023-04-11T01:12:36.419Z,65.17
2023-04-11T01:17:41.754Z,66.15
2023-04-11T01:22:47.186Z,67.46
2023-04-11T01:27:52.269Z,65.73
2023-04-11T01:32:55.101Z,69.39
2023-04-11T01:37:58.428Z,67.77
2023-04-11T01:43:03.111Z,63.94
2023-04-11T01:48:07.271Z,65.69
2023-04-11T01:53:10.120Z,70.00
2023-04-11T01:58:14.311Z,67.20
2023-04-11T02:03:17.579Z,69.95
2023-04-11T02:08:20.458Z,68.78
2023-04-11T02:13:25.195Z,72.06
2023-04-11T02:18:27.928Z,70.46
2023-04-11T02:23:31.515Z,66.89
2023-04-11T02:28:36.593Z,67.51
2023-04-11T02:33:39.454Z,68.67
2023-04-11T02:38:42.599Z,68.77
2023-04-11T02:43:47.108Z,68.81
2023-04-11T02:48:50.227Z,67.98
2023-04-11T02:53:53.278Z,69.52
2023-04-11T02:58:58.571Z,68.18
2023-04-11T03:04:03.213Z,69.10
2023-04-11T03:09:17.159Z,67.93
2023-04-11T03:14:21.574Z,67.55
2023-04-11T03:19:24.412Z,67.18
2023-04-11T03:24:27.779Z,67.99
2023-04-11T03:29:33.531Z,67.31
2023-04-11T03:34:46.928Z,67.38
2023-04-11T03:39:50.562Z,68.57
2023-04-11T03:44:55.309Z,69.61
2023-04-11T03:50:01.223Z,70.59
2023-04-11T03:55:06.527Z,69.06
2023-04-11T04:00:12.687Z,67.14
2023-04-11T04:05:27.653Z,66.05
2023-04-11T04:10:31.038Z,68.01
2023-04-11T04:15:37.033Z,66.61
2023-04-11T04:20:39.903Z,66.31
2023-04-11T04:25:45.592Z,68.20
2023-04-11T04:30:54.097Z,66.18
2023-04-11T04:36:00.181Z,67.19
2023-04-11T04:41:15.607Z,65.42
2023-04-11T04:46:25.229Z,65.84
2023-04-11T04:51:30.580Z,66.99
2023-04-11T04:56:33.711Z,69.75
2023-04-11T05:01:39.934Z,68.67
2023-04-11T05:06:44.698Z,67.29
2023-04-11T05:11:51.461Z,67.33
2023-04-11T05:16:59.399Z,68.03
2023-04-11T05:22:06.047Z,65.15
2023-04-11T05:27:14.424Z,66.60
2023-04-11T05:32:19.917Z,68.76
2023-04-11T05:37:43.215Z,69.63
2023-04-11T05:42:46.897Z,66.87
2023-04-11T05:47:51.638Z,68.48
2023-04-11T05:52:56.778Z,65.92
2023-04-11T05:57:59.758Z,65.72
2023-04-11T06:03:03.996Z,64.24
2023-04-11T06:08:08.798Z,63.31
2023-04-11T06:13:11.739Z,65.06
2023-04-11T06:18:16.157Z,65.98
2023-04-11T06:23:18.931Z,62.63
2023-04-11T06:28:21.976Z,62.65
2023-04-11T06:33:26.218Z,62.71
2023-04-11T06:38:28.951Z,63.72
2023-04-11T06:43:32.022Z,65.72
2023-04-11T06:48:36.253Z,63.40
2023-04-11T06:53:39.021Z,63.62
2023-04-11T06:58:41.821Z,62.53
2023-04-11T07:03:47.317Z,60.10
2023-04-11T07:08:51.120Z,61.04
2023-04-11T07:13:55.959Z,63.97
2023-04-11T07:19:00.468Z,65.54
2023-04-11T07:24:03.936Z,66.10
2023-04-11T07:29:09.149Z,64.50
2023-04-11T07:34:14.730Z,66.92
2023-04-11T07:39:17.595Z,64.87
2023-04-11T07:44:20.510Z,65.19
2023-04-11T07:49:24.661Z,65.41
2023-04-11T07:54:30.567Z,65.86
2023-04-11T07:59:33.787Z,69.04
2023-04-11T08:04:38.520Z,69.51
2023-04-11T08:09:42.685Z,69.69
2023-04-11T08:14:46.666Z,71.47
2023-04-11T08:19:50.979Z,72.83
2023-04-11T08:24:53.698Z,69.32
2023-04-11T08:29:58.286Z,71.52
2023-04-11T08:35:02.962Z,67.68
2023-04-11T08:40:07.715Z,66.44
2023-04-11T08:45:11.559Z,66.41
2023-04-11T08:50:15.736Z,67.19
2023-04-11T08:55:18.653Z,67.79
2023-04-11T09:00:25.305Z,67.88
2023-04-11T09:05:31.064Z,65.55
2023-04-11T09:10:34.136Z,62.47
2023-04-11T09:15:36.939Z,61.57
2023-04-11T09:20:42.081Z,63.81
2023-04-11T09:25:45.685Z,62.94
2023-04-11T09:30:52.444Z,63.66
2023-04-11T09:35:57.725Z,67.26
2023-04-11T09:41:01.337Z,66.27
2023-04-11T09:46:18.627Z,62.25
2023-04-11T09:56:31.598Z,59.86
2023-04-11T10:01:34.587Z,64.13
2023-04-11T10:06:46.590Z,65.02
2023-04-11T10:11:49.689Z,64.64
2023-04-11T10:17:20.069Z,68.68
2023-04-11T10:23:02.359Z,71.20
2023-04-11T10:28:05.616Z,68.83
2023-04-11T10:33:12.325Z,67.27
2023-04-11T10:38:51.164Z,65.29
2023-04-11T10:44:20.709Z,61.81
2023-04-11T10:49:34.879Z,60.91
2023-04-11T10:54:37.726Z,62.50
2023-04-11T11:00:15.851Z,61.03
2023-04-11T11:05:25.671Z,59.56
2023-04-11T11:10:46.270Z,58.19
2023-04-11T11:15:51.104Z,60.08
2023-04-11T11:20:56.291Z,59.45
2023-04-11T11:26:01.063Z,57.97
2023-04-11T11:31:06.171Z,61.08
2023-04-11T11:36:10.534Z,57.96
2023-04-11T11:41:13.360Z,59.98
2023-04-11T11:46:17.832Z,61.39
2023-04-11T11:51:21.261Z,58.12
2023-04-11T11:56:24.475Z,58.27
2023-04-11T12:01:28.796Z,56.31
2023-04-11T12:06:32.745Z,55.25
2023-04-11T12:11:39.812Z,56.38
2023-04-11T12:16:44.054Z,56.62
2023-04-11T12:21:46.917Z,56.54
2023-04-11T12:27:05.530Z,54.02
2023-04-11T12:32:10.844Z,52.36
2023-04-11T12:37:13.627Z,51.19
2023-04-11T12:42:18.677Z,49.71
2023-04-11T12:47:25.221Z,51.51
2023-04-11T12:52:29.243Z,50.29
2023-04-11T12:57:32.181Z,52.60
2023-04-11T13:02:43.105Z,52.83
2023-04-11T13:07:47.629Z,54.17
2023-04-11T13:12:53.242Z,55.37
2023-04-11T13:17:57.491Z,54.66
2023-04-11T13:23:00.341Z,53.92
2023-04-11T13:28:03.075Z,56.68
2023-04-11T13:33:07.195Z,58.46
2023-04-11T13:38:11.170Z,56.65
2023-04-11T13:43:17.039Z,54.36
2023-04-11T13:48:21.366Z,54.69
2023-04-11T13:53:24.648Z,64.74
2023-04-11T13:58:27.488Z,65.25
2023-04-11T14:03:33.873Z,63.87
2023-04-11T14:08:37.404Z,65.22
2023-04-11T14:13:40.404Z,66.42
2023-04-11T14:18:44.660Z,67.27
2023-04-11T14:23:47.530Z,65.12
2023-04-11T14:28:50.315Z,64.25
2023-04-11T14:33:54.661Z,62.80
2023-04-11T14:38:57.667Z,61.04
2023-04-11T14:44:00.473Z,60.34
2023-04-11T14:49:04.743Z,61.38
2023-04-11T14:54:07.480Z,64.04
2023-04-11T14:59:11.438Z,65.83
2023-04-11T15:04:15.680Z,65.16
2023-04-11T15:09:20.115Z,64.57
2023-04-11T15:14:29.098Z,67.57
2023-04-11T15:19:33.692Z,64.81
2023-04-11T15:24:36.438Z,62.17
2023-04-11T15:29:39.434Z,59.03
2023-04-11T15:34:43.812Z,60.39
2023-04-11T15:39:47.084Z,60.93
2023-04-11T15:44:49.871Z,61.30
2023-04-11T15:49:53.963Z,61.82
2023-04-11T15:54:57.995Z,62.04
2023-04-11T16:00:01.239Z,63.95
2023-04-11T16:05:14.122Z,64.76
2023-04-11T16:10:16.991Z,63.53
2023-04-11T16:15:22.717Z,64.27
2023-04-11T16:20:26.929Z,60.02
2023-04-11T16:25:29.840Z,58.02
2023-04-11T16:30:32.554Z,58.70
2023-04-11T16:35:37.135Z,57.84
2023-04-11T16:40:40.998Z,58.24
2023-04-11T16:45:43.898Z,58.07
2023-04-11T16:50:48.366Z,57.29
2023-04-11T16:55:52.623Z,56.28
2023-04-11T17:01:05.142Z,57.87
2023-04-11T17:13:19.981Z,57.34
2023-04-11T17:18:22.984Z,58.04
2023-04-11T17:23:41.261Z,56.25
2023-04-11T17:28:47.640Z,60.73
2023-04-11T17:33:50.819Z,61.10
2023-04-11T17:38:54.898Z,60.08
2023-04-11T17:43:59.669Z,62.17
2023-04-11T17:49:02.945Z,63.80
2023-04-11T17:54:06.416Z,63.07
2023-04-11T17:59:13.272Z,61.92
2023-04-11T18:05:03.777Z,63.71
2023-04-11T18:10:24.643Z,62.98
2023-04-11T18:15:29.022Z,63.65
2023-04-11T18:20:32.316Z,63.00
2023-04-11T18:25:35.259Z,65.11
2023-04-11T18:30:39.699Z,64.90
2023-04-11T18:35:42.692Z,65.06
2023-04-11T18:40:49.488Z,65.01
2023-04-11T18:45:55.370Z,65.03
2023-04-11T18:51:44.805Z,63.78
2023-04-11T18:57:03.581Z,64.35
2023-04-11T22:30:54.072Z,70.94
2023-04-11T22:35:58.445Z,70.82
2023-04-11T22:41:01.418Z,70.17
2023-04-11T22:46:06.833Z,70.39
2023-04-11T22:51:09.629Z,70.19
2023-04-11T22:56:12.493Z,69.76
2023-04-11T23:01:17.492Z,70.49
2023-04-11T23:06:20.391Z,69.54
2023-04-11T23:11:23.963Z,70.29
2023-04-11T23:16:28.313Z,71.04
2023-04-11T23:21:31.206Z,71.14
2023-04-11T23:26:34.073Z,70.86
2023-04-11T23:31:38.257Z,70.94
2023-04-11T23:36:43.350Z,69.82
2023-04-11T23:41:46.312Z,70.49
2023-04-11T23:46:52.562Z,71.55
2023-04-11T23:51:55.619Z,70.70
2023-04-11T23:56:58.515Z,70.65
